createdAt,value
2019-03-09T16:21:24.764Z,1002.51
2019-03-09T16:22:25.686Z,1002.55
2019-03-09T16:23:33.086Z,1002.54
2019-03-09T16:24:32.860Z,1002.58
2019-03-09T16:25:32.680Z,1002.58
2019-03-09T16:26:31.382Z,1002.75
2019-03-09T16:27:29.968Z,1002.77
2019-03-09T16:29:47.094Z,1002.7
2019-03-09T16:30:45.527Z,1002.7
2019-03-09T16:31:44.224Z,1002.66
2019-03-09T16:35:52.547Z,1002.85
2019-03-09T16:36:53.054Z,1002.76
2019-03-09T16:37:51.876Z,1002.76
2019-03-09T16:39:02.905Z,1002.74
2019-03-09T16:40:08.545Z,1002.7
2019-03-09T16:41:09.876Z,1002.67
2019-03-09T16:42:08.449Z,1002.73
2019-03-09T16:43:09.332Z,1002.72
2019-03-09T16:44:12.431Z,1002.69
2019-03-09T16:45:16.362Z,1002.55
2019-03-09T16:46:16.726Z,1002.58
2019-03-09T16:47:15.942Z,1002.59
2019-03-09T16:48:16.085Z,1002.58
2019-03-09T16:49:43.480Z,1002.87
2019-03-09T16:50:43.319Z,1002.81
2019-03-09T16:51:42.366Z,1002.7
2019-03-09T16:52:41.009Z,1002.82
2019-03-09T16:53:42.535Z,1002.79
2019-03-09T16:55:59.610Z,1002.63
2019-03-09T17:00:17.949Z,1002.73
2019-03-09T17:01:54.730Z,1002.74
2019-03-09T17:04:16.707Z,1002.66
2019-03-09T17:06:33.714Z,1002.7
2019-03-09T17:07:32.298Z,1002.75
2019-03-09T17:08:31.312Z,1002.77
2019-03-09T17:11:19.841Z,1002.79
2019-03-09T17:12:23.377Z,1002.85
2019-03-09T17:14:42.671Z,1002.81
2019-03-09T17:15:42.119Z,1002.82
2019-03-09T17:16:41.403Z,1002.84
2019-03-09T17:17:40.609Z,1002.86
2019-03-09T17:18:41.298Z,1002.76
2019-03-09T17:19:42.831Z,1002.74
2019-03-09T17:21:40.477Z,1002.73
2019-03-09T17:22:40.319Z,1002.82
2019-03-09T17:25:22.480Z,1002.98
2019-03-09T17:28:21.543Z,1002.93
2019-03-09T17:31:21.108Z,1002.94
2019-03-09T18:02:20.748Z,1003.76
2019-03-09T18:04:22.485Z,1003.84
2019-03-09T18:05:21.096Z,1003.95
2019-03-09T18:06:19.780Z,1003.95
2019-03-09T18:12:45.425Z,1004.17
2019-03-09T18:13:44.513Z,1004.25
2019-03-09T18:16:25.881Z,1004.18
2019-03-09T18:18:32.962Z,1004.18
2019-03-09T18:20:37.482Z,1004.34
2019-03-09T18:25:56.164Z,1004.34
2019-03-09T18:26:57.385Z,1004.46
2019-03-09T18:27:58.267Z,1004.48
2019-03-09T18:30:33.590Z,1004.44
2019-03-09T18:32:31.703Z,1004.4
2019-03-09T18:33:48.664Z,1004.46
2019-03-09T18:34:48.731Z,1004.49
2019-03-09T18:35:48.463Z,1004.55
2019-03-09T18:37:14.229Z,1004.67
2019-03-09T18:38:48.951Z,1004.7
2019-03-09T18:41:03.892Z,1004.77
2019-03-09T18:42:03.140Z,1004.77
2019-03-09T18:44:00.033Z,1004.86
2019-03-09T18:46:33.308Z,1004.89
2019-03-09T18:47:34.517Z,1004.88
2019-03-09T18:48:33.089Z,1004.88
2019-03-09T18:51:10.149Z,1004.85
2019-03-09T18:53:02.881Z,1004.9
2019-03-09T18:54:02.419Z,1005
2019-03-09T18:55:02.762Z,1004.98
2019-03-09T18:57:42.941Z,1004.89
2019-03-09T18:59:59.740Z,1004.89
2019-03-09T19:00:58.501Z,1004.92
2019-03-09T19:03:42.519Z,1005
2019-03-09T19:09:03.387Z,1005.31
2019-03-09T19:13:01.875Z,1005.23
2019-03-09T19:14:00.473Z,1005.22
2019-03-09T19:14:59.088Z,1005.21
2019-03-09T19:20:41.404Z,1005.14
2019-03-09T19:21:40.121Z,1005.2
2019-03-09T19:22:38.748Z,1005.18
2019-03-09T19:23:37.581Z,1005.19
2019-03-09T19:24:36.196Z,1005.21
2019-03-09T19:25:34.786Z,1005.27
2019-03-09T19:28:19.055Z,1005.18
2019-03-09T19:29:17.902Z,1005.19
2019-03-09T19:31:58.674Z,1005.2
2019-03-09T19:33:00.497Z,1005.23
2019-03-09T19:33:55.885Z,1005.16
2019-03-09T19:34:54.697Z,1005.24
2019-03-09T19:35:54.120Z,1005.19
2019-03-09T19:36:52.714Z,1005.19
2019-03-09T19:37:51.318Z,1005.24
2019-03-09T19:38:50.004Z,1005.28
2019-03-09T19:41:30.179Z,1005.3
2019-03-09T19:45:08.998Z,1005.33
2019-03-09T19:46:07.792Z,1005.31
2019-03-09T19:47:06.970Z,1005.29
2019-03-09T20:13:41.273Z,1005.63
2019-03-09T20:14:39.895Z,1005.47
2019-03-09T20:15:38.542Z,1005.54
2019-03-09T20:16:37.183Z,1005.6
2019-03-09T20:17:35.879Z,1005.58
2019-03-09T20:18:34.633Z,1005.61
2019-03-09T20:19:33.357Z,1005.52
2019-03-09T20:20:32.036Z,1005.54
2019-03-09T20:21:30.689Z,1005.48
2019-03-09T20:22:29.460Z,1005.57
2019-03-09T20:23:28.273Z,1005.53
2019-03-09T20:24:27.756Z,1005.55
2019-03-09T20:25:28.393Z,1005.64
2019-03-09T20:26:25.070Z,1005.67
2019-03-09T20:27:24.279Z,1005.74
2019-03-09T20:30:04.532Z,1005.72
2019-03-09T20:31:03.251Z,1005.68
2019-03-09T20:32:01.909Z,1005.75
2019-03-09T20:33:00.499Z,1005.78
2019-03-09T20:33:59.120Z,1005.73
2019-03-09T20:34:57.860Z,1005.76
2019-03-09T20:35:56.678Z,1005.86
2019-03-09T20:36:55.856Z,1005.86
2019-03-09T20:37:56.319Z,1005.91
2019-03-09T20:38:53.993Z,1005.86
2019-03-09T20:41:34.254Z,1005.88
2019-03-09T20:42:33.435Z,1005.88
2019-03-09T20:43:32.082Z,1005.96
2019-03-09T20:44:30.786Z,1005.92
2019-03-09T20:45:29.482Z,1005.93
2019-03-09T20:46:28.754Z,1005.96
2019-03-09T20:47:28.108Z,1005.92
2019-03-09T20:48:26.810Z,1005.9
2019-03-09T20:49:26.288Z,1005.99
2019-03-09T20:50:25.012Z,1005.99
2019-03-09T20:53:05.524Z,1006.04
2019-03-09T20:54:04.288Z,1006.05
2019-03-09T20:55:03.509Z,1005.97
2019-03-09T20:56:02.156Z,1005.95
2019-03-09T20:57:00.770Z,1005.98
2019-03-09T20:57:59.476Z,1005.91
2019-03-09T20:58:58.244Z,1005.92
2019-03-09T20:59:56.908Z,1005.86
2019-03-09T21:00:55.561Z,1005.93
2019-03-09T21:01:54.152Z,1005.95
2019-03-09T21:02:52.719Z,1005.89
2019-03-09T21:03:51.836Z,1005.87
2019-03-09T21:04:50.438Z,1005.9
2019-03-09T21:05:49.026Z,1005.92
2019-03-09T21:06:47.631Z,1005.93
2019-03-09T21:07:46.257Z,1005.84
2019-03-09T21:08:44.938Z,1005.9
2019-03-09T21:12:08.498Z,1005.93
2019-03-09T21:13:07.860Z,1005.92
2019-03-09T21:21:41.015Z,1005.99
2019-03-09T21:22:40.215Z,1006.02
2019-03-09T21:23:39.541Z,1006
2019-03-09T21:24:39.155Z,1006.04
2019-03-09T21:25:38.379Z,1005.97
2019-03-09T21:26:36.948Z,1006
2019-03-09T21:27:36.004Z,1005.96
2019-03-09T21:28:34.631Z,1005.92
2019-03-09T21:29:33.547Z,1005.95
2019-03-09T21:30:32.388Z,1005.94
2019-03-09T21:31:31.021Z,1005.98
2019-03-09T21:32:30.108Z,1005.99
2019-03-09T21:33:28.648Z,1005.95
2019-03-09T21:34:27.550Z,1005.95
2019-03-09T21:35:26.940Z,1005.96
2019-03-09T21:36:25.609Z,1005.97
2019-03-09T21:37:26.761Z,1005.92
2019-03-09T21:40:05.841Z,1005.95
2019-03-09T21:41:04.515Z,1005.9
2019-03-09T21:43:27.109Z,1005.82
2019-03-09T21:44:26.813Z,1005.83
2019-03-09T21:50:19.512Z,1005.87
2019-03-09T21:51:18.070Z,1005.86
2019-03-09T21:53:58.570Z,1005.88
2019-03-09T21:54:57.139Z,1005.89
2019-03-09T21:55:55.875Z,1005.93
2019-03-09T21:56:54.426Z,1006
2019-03-09T21:57:53.025Z,1006.02
2019-03-09T21:58:51.629Z,1005.99
2019-03-09T21:59:50.212Z,1006.04
2019-03-09T22:00:48.873Z,1006
2019-03-09T22:01:47.935Z,1006.01
2019-03-09T22:02:46.734Z,1006
2019-03-09T22:03:45.334Z,1005.98
2019-03-09T22:04:44.061Z,1006.02
2019-03-09T22:05:42.675Z,1006.03
2019-03-09T22:06:41.598Z,1006
2019-03-09T22:07:40.212Z,1005.96
2019-03-09T22:12:34.689Z,1006.1
2019-03-09T22:13:33.389Z,1006.03
2019-03-09T22:14:32.137Z,1005.91
2019-03-09T22:15:31.359Z,1005.94
2019-03-09T22:16:30.183Z,1006.01
2019-03-09T22:17:28.879Z,1006.04
2019-03-09T22:20:08.923Z,1005.93
2019-03-09T22:21:07.634Z,1006.05
2019-03-09T22:22:06.184Z,1006
2019-03-09T22:23:05.422Z,1005.87
2019-03-09T22:24:04.055Z,1006.03
2019-03-09T22:25:02.651Z,1005.99
2019-03-09T22:26:01.693Z,1005.97
2019-03-09T22:27:00.427Z,1006.02
2019-03-09T22:27:59.183Z,1005.9
2019-03-09T22:28:58.604Z,1005.86
2019-03-09T22:29:57.339Z,1005.87
2019-03-09T22:30:56.143Z,1005.86
2019-03-09T22:43:56.602Z,1005.69
2019-03-09T22:44:55.411Z,1005.8
2019-03-09T22:45:54.262Z,1005.78
2019-03-09T22:46:53.459Z,1005.83
2019-03-09T22:47:52.034Z,1005.84
2019-03-09T22:48:50.699Z,1005.83
2019-03-09T22:49:49.206Z,1005.74
2019-03-09T22:50:49.793Z,1005.78
2019-03-09T22:51:48.508Z,1005.84
2019-03-09T22:52:47.314Z,1005.83
2019-03-09T22:53:46.012Z,1005.76
2019-03-09T22:54:44.592Z,1005.78
2019-03-09T22:55:43.169Z,1005.79
2019-03-09T22:56:43.181Z,1005.75
2019-03-09T22:59:22.567Z,1005.76
2019-03-09T23:00:21.196Z,1005.78
2019-03-09T23:01:19.777Z,1005.74
2019-03-09T23:02:18.551Z,1005.71
2019-03-09T23:03:17.171Z,1005.72
2019-03-09T23:04:15.974Z,1005.75
2019-03-09T23:05:14.541Z,1005.73
2019-03-09T23:06:18.980Z,1005.76
2019-03-09T23:08:59.501Z,1005.77
2019-03-09T23:09:59.987Z,1005.72
2019-03-09T23:10:57.539Z,1005.78
2019-03-09T23:36:24.869Z,1005.26
2019-03-09T23:37:23.712Z,1005.23
2019-03-09T23:38:22.288Z,1005.3
2019-03-09T23:39:20.871Z,1005.26
2019-03-09T23:40:19.468Z,1005.26
2019-03-09T23:41:18.097Z,1005.25
2019-03-09T23:42:16.677Z,1005.22
2019-03-09T23:43:15.382Z,1005.23
2019-03-09T23:44:14.037Z,1005.15
2019-03-09T23:45:12.648Z,1005.15
2019-03-09T23:46:11.361Z,1005.1
2019-03-09T23:47:09.964Z,1005.1
2019-03-09T23:48:08.554Z,1005.13
2019-03-09T23:49:07.147Z,1005.09
2019-03-09T23:50:06.149Z,1005.04
2019-03-09T23:51:04.648Z,1005.01
2019-03-09T23:52:03.207Z,1004.87
2019-03-09T23:53:01.829Z,1004.9
2019-03-09T23:54:00.568Z,1004.94
2019-03-09T23:54:59.142Z,1004.95
2019-03-09T23:55:57.827Z,1005
2019-03-09T23:56:56.508Z,1004.92
2019-03-09T23:59:36.971Z,1004.89
